sensor_id;sensor_type;location;lat;lon;timestamp;P1;durP1;ratioP1;P2;durP2;ratioP2
59571;SDS011;59406;45.602;11.904;2023-03-22T00:01:27;6.00;;;3.40;;
59571;SDS011;59406;45.602;11.904;2023-03-22T00:03:55;5.97;;;3.60;;
59571;SDS011;59406;45.602;11.904;2023-03-22T00:06:22;5.40;;;3.20;;
59571;SDS011;59406;45.602;11.904;2023-03-22T00:08:48;7.50;;;3.80;;
59571;SDS011;59406;45.602;11.904;2023-03-22T00:11:16;6.68;;;3.30;;
59571;SDS011;59406;45.602;11.904;2023-03-22T00:13:43;6.68;;;3.35;;
59571;SDS011;59406;45.602;11.904;2023-03-22T00:16:11;5.63;;;3.33;;
59571;SDS011;59406;45.602;11.904;2023-03-22T00:18:38;6.78;;;3.58;;
59571;SDS011;59406;45.602;11.904;2023-03-22T00:21:04;6.20;;;3.60;;
59571;SDS011;59406;45.602;11.904;2023-03-22T00:23:34;6.78;;;3.40;;
59571;SDS011;59406;45.602;11.904;2023-03-22T00:26:00;6.53;;;3.45;;
59571;SDS011;59406;45.602;11.904;2023-03-22T00:28:26;6.27;;;3.30;;
59571;SDS011;59406;45.602;11.904;2023-03-22T00:30:53;7.65;;;3.65;;
59571;SDS011;59406;45.602;11.904;2023-03-22T00:33:21;5.93;;;3.78;;
59571;SDS011;59406;45.602;11.904;2023-03-22T00:35:49;6.80;;;3.53;;
59571;SDS011;59406;45.602;11.904;2023-03-22T00:38:19;5.97;;;3.67;;
59571;SDS011;59406;45.602;11.904;2023-03-22T00:40:45;6.33;;;3.47;;
59571;SDS011;59406;45.602;11.904;2023-03-22T00:43:11;6.30;;;3.53;;
59571;SDS011;59406;45.602;11.904;2023-03-22T00:45:38;6.82;;;3.13;;
59571;SDS011;59406;45.602;11.904;2023-03-22T00:48:08;6.43;;;3.67;;
59571;SDS011;59406;45.602;11.904;2023-03-22T00:50:38;6.10;;;3.70;;
59571;SDS011;59406;45.602;11.904;2023-03-22T00:53:05;6.30;;;3.80;;
59571;SDS011;59406;45.602;11.904;2023-03-22T00:55:31;7.30;;;3.92;;
59571;SDS011;59406;45.602;11.904;2023-03-22T00:57:57;6.03;;;3.70;;
59571;SDS011;59406;45.602;11.904;2023-03-22T01:00:23;6.10;;;3.83;;
59571;SDS011;59406;45.602;11.904;2023-03-22T01:02:49;5.60;;;3.33;;
59571;SDS011;59406;45.602;11.904;2023-03-22T01:05:18;5.93;;;3.70;;
59571;SDS011;59406;45.602;11.904;2023-03-22T01:07:46;6.15;;;3.50;;
59571;SDS011;59406;45.602;11.904;2023-03-22T01:10:15;6.50;;;3.78;;
59571;SDS011;59406;45.602;11.904;2023-03-22T01:12:41;7.03;;;3.73;;
59571;SDS011;59406;45.602;11.904;2023-03-22T01:15:10;7.45;;;4.30;;
59571;SDS011;59406;45.602;11.904;2023-03-22T01:17:37;8.80;;;4.50;;
59571;SDS011;59406;45.602;11.904;2023-03-22T01:20:03;6.30;;;3.92;;
59571;SDS011;59406;45.602;11.904;2023-03-22T01:22:30;5.70;;;3.72;;
59571;SDS011;59406;45.602;11.904;2023-03-22T01:24:56;6.53;;;3.90;;
59571;SDS011;59406;45.602;11.904;2023-03-22T01:27:22;6.90;;;4.25;;
59571;SDS011;59406;45.602;11.904;2023-03-22T01:29:48;6.82;;;4.07;;
59571;SDS011;59406;45.602;11.904;2023-03-22T01:32:14;6.10;;;3.80;;
59571;SDS011;59406;45.602;11.904;2023-03-22T01:34:40;6.13;;;3.97;;
59571;SDS011;59406;45.602;11.904;2023-03-22T01:37:06;6.25;;;3.97;;
59571;SDS011;59406;45.602;11.904;2023-03-22T01:39:32;6.43;;;4.00;;
59571;SDS011;59406;45.602;11.904;2023-03-22T01:41:58;6.60;;;4.10;;
59571;SDS011;59406;45.602;11.904;2023-03-22T01:44:27;6.80;;;4.32;;
59571;SDS011;59406;45.602;11.904;2023-03-22T01:46:54;6.50;;;3.92;;
59571;SDS011;59406;45.602;11.904;2023-03-22T01:49:27;7.27;;;3.80;;
59571;SDS011;59406;45.602;11.904;2023-03-22T01:51:57;6.78;;;4.40;;
59571;SDS011;59406;45.602;11.904;2023-03-22T01:54:34;6.38;;;3.95;;
59571;SDS011;59406;45.602;11.904;2023-03-22T01:57:07;7.25;;;4.38;;
59571;SDS011;59406;45.602;11.904;2023-03-22T01:59:33;6.63;;;4.47;;
59571;SDS011;59406;45.602;11.904;2023-03-22T02:01:59;6.47;;;4.10;;
59571;SDS011;59406;45.602;11.904;2023-03-22T02:04:27;6.80;;;4.05;;
59571;SDS011;59406;45.602;11.904;2023-03-22T02:07:02;7.47;;;4.13;;
59571;SDS011;59406;45.602;11.904;2023-03-22T02:09:37;8.23;;;4.70;;
59571;SDS011;59406;45.602;11.904;2023-03-22T02:34:46;6.80;;;4.32;;
59571;SDS011;59406;45.602;11.904;2023-03-22T02:37:37;7.32;;;4.65;;
59571;SDS011;59406;45.602;11.904;2023-03-22T02:49:15;6.70;;;4.38;;
59571;SDS011;59406;45.602;11.904;2023-03-22T02:54:27;6.57;;;3.87;;
59571;SDS011;59406;45.602;11.904;2023-03-22T02:57:01;6.72;;;4.60;;
59571;SDS011;59406;45.602;11.904;2023-03-22T02:59:32;6.75;;;4.47;;
59571;SDS011;59406;45.602;11.904;2023-03-22T03:02:02;7.47;;;4.65;;
59571;SDS011;59406;45.602;11.904;2023-03-22T03:04:31;6.97;;;4.40;;
59571;SDS011;59406;45.602;11.904;2023-03-22T03:07:03;7.03;;;4.40;;
59571;SDS011;59406;45.602;11.904;2023-03-22T03:09:34;6.22;;;4.15;;
59571;SDS011;59406;45.602;11.904;2023-03-22T03:12:01;7.00;;;4.30;;
59571;SDS011;59406;45.602;11.904;2023-03-22T03:14:33;6.35;;;4.15;;
59571;SDS011;59406;45.602;11.904;2023-03-22T03:17:09;6.35;;;4.18;;
59571;SDS011;59406;45.602;11.904;2023-03-22T03:25:37;6.75;;;4.00;;
59571;SDS011;59406;45.602;11.904;2023-03-22T03:31:12;7.30;;;4.78;;
59571;SDS011;59406;45.602;11.904;2023-03-22T03:33:43;6.87;;;4.67;;
59571;SDS011;59406;45.602;11.904;2023-03-22T03:36:20;7.18;;;4.63;;
59571;SDS011;59406;45.602;11.904;2023-03-22T03:38:48;6.95;;;4.72;;
59571;SDS011;59406;45.602;11.904;2023-03-22T03:41:17;7.47;;;4.38;;
59571;SDS011;59406;45.602;11.904;2023-03-22T03:43:47;7.03;;;4.75;;
59571;SDS011;59406;45.602;11.904;2023-03-22T03:46:13;7.47;;;4.53;;
59571;SDS011;59406;45.602;11.904;2023-03-22T03:48:40;6.97;;;4.40;;
59571;SDS011;59406;45.602;11.904;2023-03-22T03:51:09;7.18;;;4.68;;
59571;SDS011;59406;45.602;11.904;2023-03-22T03:53:35;7.28;;;4.30;;
59571;SDS011;59406;45.602;11.904;2023-03-22T03:56:01;7.90;;;5.03;;
59571;SDS011;59406;45.602;11.904;2023-03-22T03:58:27;7.10;;;4.45;;
59571;SDS011;59406;45.602;11.904;2023-03-22T04:00:55;7.20;;;4.55;;
59571;SDS011;59406;45.602;11.904;2023-03-22T04:03:21;7.72;;;5.30;;
59571;SDS011;59406;45.602;11.904;2023-03-22T04:05:47;6.63;;;4.50;;
59571;SDS011;59406;45.602;11.904;2023-03-22T04:08:16;6.73;;;4.50;;
59571;SDS011;59406;45.602;11.904;2023-03-22T04:10:48;7.15;;;4.45;;
59571;SDS011;59406;45.602;11.904;2023-03-22T04:13:16;7.32;;;4.90;;
59571;SDS011;59406;45.602;11.904;2023-03-22T04:15:45;7.55;;;4.82;;
59571;SDS011;59406;45.602;11.904;2023-03-22T04:18:12;8.48;;;4.90;;
59571;SDS011;59406;45.602;11.904;2023-03-22T04:20:38;7.33;;;4.57;;
59571;SDS011;59406;45.602;11.904;2023-03-22T04:23:06;6.28;;;4.63;;
59571;SDS011;59406;45.602;11.904;2023-03-22T04:25:35;7.50;;;4.80;;
59571;SDS011;59406;45.602;11.904;2023-03-22T04:28:02;7.75;;;5.13;;
59571;SDS011;59406;45.602;11.904;2023-03-22T04:30:29;6.88;;;4.70;;
59571;SDS011;59406;45.602;11.904;2023-03-22T04:33:03;7.10;;;4.60;;
59571;SDS011;59406;45.602;11.904;2023-03-22T04:35:33;7.03;;;4.57;;
59571;SDS011;59406;45.602;11.904;2023-03-22T04:37:59;7.38;;;4.75;;
59571;SDS011;59406;45.602;11.904;2023-03-22T04:40:25;6.55;;;4.55;;
59571;SDS011;59406;45.602;11.904;2023-03-22T04:42:56;7.75;;;4.78;;
59571;SDS011;59406;45.602;11.904;2023-03-22T04:45:23;6.80;;;4.23;;
59571;SDS011;59406;45.602;11.904;2023-03-22T04:47:49;7.03;;;4.32;;
59571;SDS011;59406;45.602;11.904;2023-03-22T04:50:15;7.35;;;5.20;;
59571;SDS011;59406;45.602;11.904;2023-03-22T04:52:41;7.07;;;4.85;;
59571;SDS011;59406;45.602;11.904;2023-03-22T04:55:07;6.80;;;4.47;;
59571;SDS011;59406;45.602;11.904;2023-03-22T04:57:33;7.40;;;4.68;;
59571;SDS011;59406;45.602;11.904;2023-03-22T04:59:59;6.60;;;4.45;;
59571;SDS011;59406;45.602;11.904;2023-03-22T05:02:25;6.85;;;4.28;;
59571;SDS011;59406;45.602;11.904;2023-03-22T05:04:51;7.13;;;4.82;;
59571;SDS011;59406;45.602;11.904;2023-03-22T05:07:17;7.13;;;4.40;;
59571;SDS011;59406;45.602;11.904;2023-03-22T05:09:43;6.90;;;4.82;;
59571;SDS011;59406;45.602;11.904;2023-03-22T05:12:09;6.88;;;4.53;;
59571;SDS011;59406;45.602;11.904;2023-03-22T05:14:35;6.97;;;5.27;;
59571;SDS011;59406;45.602;11.904;2023-03-22T05:17:01;7.20;;;4.60;;
59571;SDS011;59406;45.602;11.904;2023-03-22T05:19:27;6.82;;;4.55;;
59571;SDS011;59406;45.602;11.904;2023-03-22T05:21:53;6.80;;;4.60;;
59571;SDS011;59406;45.602;11.904;2023-03-22T05:24:22;7.18;;;4.80;;
59571;SDS011;59406;45.602;11.904;2023-03-22T05:26:48;6.13;;;4.23;;
59571;SDS011;59406;45.602;11.904;2023-03-22T05:29:18;6.60;;;4.50;;
59571;SDS011;59406;45.602;11.904;2023-03-22T05:31:45;6.95;;;4.50;;
59571;SDS011;59406;45.602;11.904;2023-03-22T05:34:11;8.20;;;5.25;;
59571;SDS011;59406;45.602;11.904;2023-03-22T05:36:37;6.73;;;4.50;;
59571;SDS011;59406;45.602;11.904;2023-03-22T05:39:03;7.80;;;5.03;;
59571;SDS011;59406;45.602;11.904;2023-03-22T05:41:29;7.00;;;5.07;;
59571;SDS011;59406;45.602;11.904;2023-03-22T05:43:58;7.10;;;4.85;;
59571;SDS011;59406;45.602;11.904;2023-03-22T05:46:25;6.68;;;4.15;;
59571;SDS011;59406;45.602;11.904;2023-03-22T05:48:51;8.33;;;4.63;;
59571;SDS011;59406;45.602;11.904;2023-03-22T05:51:16;6.90;;;5.07;;
59571;SDS011;59406;45.602;11.904;2023-03-22T05:53:46;7.25;;;4.90;;
59571;SDS011;59406;45.602;11.904;2023-03-22T05:56:13;7.80;;;5.00;;
59571;SDS011;59406;45.602;11.904;2023-03-22T05:58:40;6.80;;;4.63;;
59571;SDS011;59406;45.602;11.904;2023-03-22T06:01:07;7.70;;;5.20;;
59571;SDS011;59406;45.602;11.904;2023-03-22T06:03:40;7.05;;;4.72;;
59571;SDS011;59406;45.602;11.904;2023-03-22T06:06:07;7.32;;;4.75;;
59571;SDS011;59406;45.602;11.904;2023-03-22T06:08:37;7.05;;;4.60;;
59571;SDS011;59406;45.602;11.904;2023-03-22T06:11:06;7.28;;;4.40;;
59571;SDS011;59406;45.602;11.904;2023-03-22T06:13:32;7.03;;;4.70;;
59571;SDS011;59406;45.602;11.904;2023-03-22T06:15:59;7.22;;;4.47;;
59571;SDS011;59406;45.602;11.904;2023-03-22T06:18:27;8.50;;;4.43;;
59571;SDS011;59406;45.602;11.904;2023-03-22T06:20:54;6.63;;;4.25;;
59571;SDS011;59406;45.602;11.904;2023-03-22T06:23:20;7.80;;;4.60;;
59571;SDS011;59406;45.602;11.904;2023-03-22T06:25:46;7.22;;;4.35;;
59571;SDS011;59406;45.602;11.904;2023-03-22T06:28:12;6.70;;;4.32;;
59571;SDS011;59406;45.602;11.904;2023-03-22T06:30:38;6.35;;;4.50;;
59571;SDS011;59406;45.602;11.904;2023-03-22T06:33:04;6.60;;;4.55;;
59571;SDS011;59406;45.602;11.904;2023-03-22T06:35:31;7.93;;;5.10;;
59571;SDS011;59406;45.602;11.904;2023-03-22T06:37:57;7.45;;;4.68;;
59571;SDS011;59406;45.602;11.904;2023-03-22T06:40:24;7.22;;;4.70;;
59571;SDS011;59406;45.602;11.904;2023-03-22T06:42:50;7.22;;;4.57;;
59571;SDS011;59406;45.602;11.904;2023-03-22T06:45:16;7.38;;;4.50;;
59571;SDS011;59406;45.602;11.904;2023-03-22T06:47:42;7.67;;;4.67;;
59571;SDS011;59406;45.602;11.904;2023-03-22T06:50:08;6.93;;;4.57;;
59571;SDS011;59406;45.602;11.904;2023-03-22T06:52:39;6.32;;;4.22;;
59571;SDS011;59406;45.602;11.904;2023-03-22T06:55:05;7.10;;;4.53;;
59571;SDS011;59406;45.602;11.904;2023-03-22T06:57:31;7.00;;;4.50;;
59571;SDS011;59406;45.602;11.904;2023-03-22T06:59:57;7.10;;;4.70;;
59571;SDS011;59406;45.602;11.904;2023-03-22T07:02:23;5.88;;;3.95;;
59571;SDS011;59406;45.602;11.904;2023-03-22T07:04:48;6.70;;;4.00;;
59571;SDS011;59406;45.602;11.904;2023-03-22T07:07:14;7.80;;;4.60;;
59571;SDS011;59406;45.602;11.904;2023-03-22T07:09:40;7.45;;;4.68;;
59571;SDS011;59406;45.602;11.904;2023-03-22T07:12:06;8.83;;;4.30;;
59571;SDS011;59406;45.602;11.904;2023-03-22T07:14:32;7.75;;;4.57;;
59571;SDS011;59406;45.602;11.904;2023-03-22T07:16:58;6.90;;;4.50;;
59571;SDS011;59406;45.602;11.904;2023-03-22T07:19:24;7.00;;;4.30;;
59571;SDS011;59406;45.602;11.904;2023-03-22T07:21:51;9.35;;;4.15;;
59571;SDS011;59406;45.602;11.904;2023-03-22T07:24:18;8.25;;;4.75;;
59571;SDS011;59406;45.602;11.904;2023-03-22T07:26:44;7.93;;;4.73;;
59571;SDS011;59406;45.602;11.904;2023-03-22T07:29:10;7.53;;;4.47;;
59571;SDS011;59406;45.602;11.904;2023-03-22T07:31:36;8.07;;;4.50;;
59571;SDS011;59406;45.602;11.904;2023-03-22T07:34:03;8.57;;;4.70;;
59571;SDS011;59406;45.602;11.904;2023-03-22T07:36:30;7.85;;;4.88;;
59571;SDS011;59406;45.602;11.904;2023-03-22T07:38:56;9.20;;;6.32;;
59571;SDS011;59406;45.602;11.904;2023-03-22T07:41:22;12.95;;;8.27;;
59571;SDS011;59406;45.602;11.904;2023-03-22T07:43:49;10.70;;;6.85;;
59571;SDS011;59406;45.602;11.904;2023-03-22T07:46:15;9.67;;;5.13;;
59571;SDS011;59406;45.602;11.904;2023-03-22T07:48:41;8.13;;;5.55;;
59571;SDS011;59406;45.602;11.904;2023-03-22T07:51:07;8.25;;;5.28;;
59571;SDS011;59406;45.602;11.904;2023-03-22T07:53:33;9.73;;;6.27;;
59571;SDS011;59406;45.602;11.904;2023-03-22T07:56:01;11.27;;;5.22;;
59571;SDS011;59406;45.602;11.904;2023-03-22T07:58:28;8.38;;;5.43;;
59571;SDS011;59406;45.602;11.904;2023-03-22T08:00:54;8.07;;;5.47;;
59571;SDS011;59406;45.602;11.904;2023-03-22T08:03:20;10.50;;;7.33;;
59571;SDS011;59406;45.602;11.904;2023-03-22T08:05:47;8.05;;;4.90;;
59571;SDS011;59406;45.602;11.904;2023-03-22T08:08:13;8.77;;;5.53;;
59571;SDS011;59406;45.602;11.904;2023-03-22T08:10:39;9.80;;;6.82;;
59571;SDS011;59406;45.602;11.904;2023-03-22T08:13:06;12.57;;;8.13;;
59571;SDS011;59406;45.602;11.904;2023-03-22T08:15:31;12.20;;;8.17;;
59571;SDS011;59406;45.602;11.904;2023-03-22T08:17:58;9.63;;;6.65;;
59571;SDS011;59406;45.602;11.904;2023-03-22T08:20:24;11.88;;;5.80;;
59571;SDS011;59406;45.602;11.904;2023-03-22T08:22:52;8.73;;;5.55;;
59571;SDS011;59406;45.602;11.904;2023-03-22T08:25:19;15.75;;;10.40;;
59571;SDS011;59406;45.602;11.904;2023-03-22T08:27:45;12.50;;;8.30;;
59571;SDS011;59406;45.602;11.904;2023-03-22T08:30:12;13.68;;;7.53;;
59571;SDS011;59406;45.602;11.904;2023-03-22T08:32:38;9.65;;;5.65;;
59571;SDS011;59406;45.602;11.904;2023-03-22T08:35:05;12.43;;;7.78;;
59571;SDS011;59406;45.602;11.904;2023-03-22T08:37:31;12.15;;;6.70;;
59571;SDS011;59406;45.602;11.904;2023-03-22T08:39:57;11.80;;;7.63;;
59571;SDS011;59406;45.602;11.904;2023-03-22T08:42:23;13.13;;;7.97;;
59571;SDS011;59406;45.602;11.904;2023-03-22T08:44:49;10.57;;;6.22;;
59571;SDS011;59406;45.602;11.904;2023-03-22T08:47:16;11.20;;;5.75;;
59571;SDS011;59406;45.602;11.904;2023-03-22T08:49:42;10.37;;;5.70;;
59571;SDS011;59406;45.602;11.904;2023-03-22T08:52:08;10.90;;;5.82;;
59571;SDS011;59406;45.602;11.904;2023-03-22T08:54:35;9.27;;;6.38;;
59571;SDS011;59406;45.602;11.904;2023-03-22T08:57:02;8.95;;;5.28;;
59571;SDS011;59406;45.602;11.904;2023-03-22T08:59:29;9.18;;;6.00;;
59571;SDS011;59406;45.602;11.904;2023-03-22T09:01:54;12.97;;;6.80;;
59571;SDS011;59406;45.602;11.904;2023-03-22T09:04:20;10.10;;;5.97;;
59571;SDS011;59406;45.602;11.904;2023-03-22T09:06:46;9.57;;;5.88;;
59571;SDS011;59406;45.602;11.904;2023-03-22T09:09:12;9.73;;;5.67;;
59571;SDS011;59406;45.602;11.904;2023-03-22T09:11:39;9.85;;;5.80;;
59571;SDS011;59406;45.602;11.904;2023-03-22T09:14:07;9.82;;;5.63;;
59571;SDS011;59406;45.602;11.904;2023-03-22T09:16:33;11.90;;;6.22;;
59571;SDS011;59406;45.602;11.904;2023-03-22T09:18:59;10.50;;;5.30;;
59571;SDS011;59406;45.602;11.904;2023-03-22T09:21:26;9.07;;;5.60;;
59571;SDS011;59406;45.602;11.904;2023-03-22T09:23:54;8.77;;;5.25;;
59571;SDS011;59406;45.602;11.904;2023-03-22T09:26:20;8.85;;;5.63;;
59571;SDS011;59406;45.602;11.904;2023-03-22T09:28:47;8.65;;;5.28;;
59571;SDS011;59406;45.602;11.904;2023-03-22T09:31:13;12.35;;;6.20;;
59571;SDS011;59406;45.602;11.904;2023-03-22T09:33:40;9.43;;;5.43;;
59571;SDS011;59406;45.602;11.904;2023-03-22T09:36:07;9.20;;;5.80;;
59571;SDS011;59406;45.602;11.904;2023-03-22T09:38:36;11.73;;;7.55;;
59571;SDS011;59406;45.602;11.904;2023-03-22T09:41:06;13.32;;;7.70;;
59571;SDS011;59406;45.602;11.904;2023-03-22T09:43:42;12.15;;;7.22;;
59571;SDS011;59406;45.602;11.904;2023-03-22T09:46:16;10.57;;;6.20;;
59571;SDS011;59406;45.602;11.904;2023-03-22T09:48:48;12.10;;;7.25;;
59571;SDS011;59406;45.602;11.904;2023-03-22T09:53:55;10.18;;;6.45;;
59571;SDS011;59406;45.602;11.904;2023-03-22T09:56:24;10.73;;;6.43;;
59571;SDS011;59406;45.602;11.904;2023-03-22T09:58:55;10.40;;;6.80;;
59571;SDS011;59406;45.602;11.904;2023-03-22T10:01:50;9.15;;;5.38;;
59571;SDS011;59406;45.602;11.904;2023-03-22T10:07:24;9.23;;;5.53;;
59571;SDS011;59406;45.602;11.904;2023-03-22T10:10:13;9.27;;;5.20;;
59571;SDS011;59406;45.602;11.904;2023-03-22T10:12:51;9.10;;;5.90;;
59571;SDS011;59406;45.602;11.904;2023-03-22T10:15:37;10.65;;;6.38;;
59571;SDS011;59406;45.602;11.904;2023-03-22T10:18:10;9.88;;;5.75;;
59571;SDS011;59406;45.602;11.904;2023-03-22T10:23:35;9.38;;;5.25;;
59571;SDS011;59406;45.602;11.904;2023-03-22T10:26:11;8.50;;;5.53;;
59571;SDS011;59406;45.602;11.904;2023-03-22T10:28:43;8.68;;;5.70;;
59571;SDS011;59406;45.602;11.904;2023-03-22T10:31:13;9.75;;;6.00;;
59571;SDS011;59406;45.602;11.904;2023-03-22T10:36:19;9.85;;;6.00;;
59571;SDS011;59406;45.602;11.904;2023-03-22T10:38:49;11.93;;;6.53;;
59571;SDS011;59406;45.602;11.904;2023-03-22T10:41:37;9.82;;;6.50;;
59571;SDS011;59406;45.602;11.904;2023-03-22T10:44:04;9.10;;;6.13;;
59571;SDS011;59406;45.602;11.904;2023-03-22T10:46:33;10.68;;;6.63;;
59571;SDS011;59406;45.602;11.904;2023-03-22T10:49:02;9.27;;;5.55;;
59571;SDS011;59406;45.602;11.904;2023-03-22T10:51:34;8.10;;;5.27;;
59571;SDS011;59406;45.602;11.904;2023-03-22T10:54:11;9.50;;;5.80;;
59571;SDS011;59406;45.602;11.904;2023-03-22T10:56:39;10.15;;;6.70;;
59571;SDS011;59406;45.602;11.904;2023-03-22T10:59:05;9.25;;;5.97;;
59571;SDS011;59406;45.602;11.904;2023-03-22T11:01:32;8.95;;;5.60;;
59571;SDS011;59406;45.602;11.904;2023-03-22T11:04:06;9.57;;;5.13;;
59571;SDS011;59406;45.602;11.904;2023-03-22T11:06:39;7.32;;;4.78;;
59571;SDS011;59406;45.602;11.904;2023-03-22T11:09:19;9.55;;;6.00;;
59571;SDS011;59406;45.602;11.904;2023-03-22T11:14:19;9.82;;;5.50;;
59571;SDS011;59406;45.602;11.904;2023-03-22T11:17:00;12.27;;;8.43;;
59571;SDS011;59406;45.602;11.904;2023-03-22T11:19:36;10.43;;;6.90;;
59571;SDS011;59406;45.602;11.904;2023-03-22T11:22:06;10.82;;;6.32;;
59571;SDS011;59406;45.602;11.904;2023-03-22T11:24:48;9.88;;;5.63;;
59571;SDS011;59406;45.602;11.904;2023-03-22T11:27:22;9.77;;;5.30;;
59571;SDS011;59406;45.602;11.904;2023-03-22T11:29:56;8.50;;;5.40;;
59571;SDS011;59406;45.602;11.904;2023-03-22T11:32:41;8.10;;;5.30;;
59571;SDS011;59406;45.602;11.904;2023-03-22T11:37:43;9.43;;;6.38;;
59571;SDS011;59406;45.602;11.904;2023-03-22T11:40:15;8.30;;;5.30;;
59571;SDS011;59406;45.602;11.904;2023-03-22T11:42:43;9.48;;;5.88;;
59571;SDS011;59406;45.602;11.904;2023-03-22T11:45:14;8.38;;;5.40;;
59571;SDS011;59406;45.602;11.904;2023-03-22T11:47:45;10.20;;;6.45;;
59571;SDS011;59406;45.602;11.904;2023-03-22T11:50:28;8.82;;;5.47;;
59571;SDS011;59406;45.602;11.904;2023-03-22T11:52:56;8.60;;;5.87;;
59571;SDS011;59406;45.602;11.904;2023-03-22T11:55:25;8.63;;;5.25;;
59571;SDS011;59406;45.602;11.904;2023-03-22T11:57:56;8.00;;;4.97;;
59571;SDS011;59406;45.602;11.904;2023-03-22T12:00:23;9.68;;;6.00;;
59571;SDS011;59406;45.602;11.904;2023-03-22T12:02:53;12.00;;;8.43;;
59571;SDS011;59406;45.602;11.904;2023-03-22T12:05:27;8.07;;;5.70;;
59571;SDS011;59406;45.602;11.904;2023-03-22T12:08:02;8.88;;;5.10;;
59571;SDS011;59406;45.602;11.904;2023-03-22T12:10:43;8.40;;;5.68;;
59571;SDS011;59406;45.602;11.904;2023-03-22T12:15:50;9.15;;;5.53;;
59571;SDS011;59406;45.602;11.904;2023-03-22T12:18:30;8.67;;;5.40;;
59571;SDS011;59406;45.602;11.904;2023-03-22T12:21:07;9.32;;;5.57;;
59571;SDS011;59406;45.602;11.904;2023-03-22T12:23:34;7.90;;;5.25;;
59571;SDS011;59406;45.602;11.904;2023-03-22T12:31:26;8.67;;;5.30;;
59571;SDS011;59406;45.602;11.904;2023-03-22T12:34:04;10.43;;;5.57;;
59571;SDS011;59406;45.602;11.904;2023-03-22T12:39:24;7.85;;;4.80;;
59571;SDS011;59406;45.602;11.904;2023-03-22T12:41:55;8.93;;;5.25;;
59571;SDS011;59406;45.602;11.904;2023-03-22T12:44:31;7.50;;;4.97;;
59571;SDS011;59406;45.602;11.904;2023-03-22T12:47:06;8.88;;;5.38;;
59571;SDS011;59406;45.602;11.904;2023-03-22T12:50:04;8.65;;;5.28;;
59571;SDS011;59406;45.602;11.904;2023-03-22T12:55:23;7.85;;;5.30;;
59571;SDS011;59406;45.602;11.904;2023-03-22T12:57:51;8.90;;;5.23;;
59571;SDS011;59406;45.602;11.904;2023-03-22T13:00:19;7.70;;;4.88;;
59571;SDS011;59406;45.602;11.904;2023-03-22T13:02:57;8.85;;;5.40;;
59571;SDS011;59406;45.602;11.904;2023-03-22T13:05:27;7.75;;;5.00;;
59571;SDS011;59406;45.602;11.904;2023-03-22T13:07:56;8.90;;;5.30;;
59571;SDS011;59406;45.602;11.904;2023-03-22T13:26:19;7.75;;;5.00;;
59571;SDS011;59406;45.602;11.904;2023-03-22T13:28:59;8.23;;;4.88;;
59571;SDS011;59406;45.602;11.904;2023-03-22T13:31:35;7.67;;;4.97;;
59571;SDS011;59406;45.602;11.904;2023-03-22T13:34:10;8.60;;;4.95;;
59571;SDS011;59406;45.602;11.904;2023-03-22T13:36:39;8.50;;;4.97;;
59571;SDS011;59406;45.602;11.904;2023-03-22T13:39:18;8.48;;;4.93;;
59571;SDS011;59406;45.602;11.904;2023-03-22T13:41:47;6.90;;;4.95;;
59571;SDS011;59406;45.602;11.904;2023-03-22T13:44:30;6.80;;;4.80;;
59571;SDS011;59406;45.602;11.904;2023-03-22T13:47:02;7.78;;;4.30;;
59571;SDS011;59406;45.602;11.904;2023-03-22T13:52:27;7.47;;;4.97;;
59571;SDS011;59406;45.602;11.904;2023-03-22T13:55:00;7.32;;;4.50;;
59571;SDS011;59406;45.602;11.904;2023-03-22T13:57:39;7.50;;;4.50;;
59571;SDS011;59406;45.602;11.904;2023-03-22T14:02:56;7.43;;;4.90;;
59571;SDS011;59406;45.602;11.904;2023-03-22T14:05:33;7.65;;;4.50;;
59571;SDS011;59406;45.602;11.904;2023-03-22T14:08:02;6.68;;;4.15;;
59571;SDS011;59406;45.602;11.904;2023-03-22T14:10:36;6.60;;;4.30;;
59571;SDS011;59406;45.602;11.904;2023-03-22T14:13:13;8.73;;;4.22;;
59571;SDS011;59406;45.602;11.904;2023-03-22T14:15:47;10.05;;;4.88;;
59571;SDS011;59406;45.602;11.904;2023-03-22T14:18:19;7.97;;;4.32;;
59571;SDS011;59406;45.602;11.904;2023-03-22T14:20:57;7.90;;;4.88;;
59571;SDS011;59406;45.602;11.904;2023-03-22T14:23:32;10.20;;;5.93;;
59571;SDS011;59406;45.602;11.904;2023-03-22T14:26:06;9.40;;;5.28;;
59571;SDS011;59406;45.602;11.904;2023-03-22T14:29:06;8.82;;;5.40;;
59571;SDS011;59406;45.602;11.904;2023-03-22T14:31:35;7.07;;;4.22;;
59571;SDS011;59406;45.602;11.904;2023-03-22T14:34:07;8.07;;;4.50;;
59571;SDS011;59406;45.602;11.904;2023-03-22T14:36:38;7.10;;;4.23;;
59571;SDS011;59406;45.602;11.904;2023-03-22T14:42:04;8.48;;;4.72;;
59571;SDS011;59406;45.602;11.904;2023-03-22T14:44:51;7.22;;;4.47;;
59571;SDS011;59406;45.602;11.904;2023-03-22T14:47:20;7.55;;;4.57;;
59571;SDS011;59406;45.602;11.904;2023-03-22T14:49:56;7.70;;;4.57;;
59571;SDS011;59406;45.602;11.904;2023-03-22T14:52:27;7.15;;;3.90;;
59571;SDS011;59406;45.602;11.904;2023-03-22T14:54:56;7.65;;;4.75;;
59571;SDS011;59406;45.602;11.904;2023-03-22T14:57:25;8.98;;;4.63;;
59571;SDS011;59406;45.602;11.904;2023-03-22T14:59:53;8.60;;;4.93;;
59571;SDS011;59406;45.602;11.904;2023-03-22T15:02:24;7.93;;;4.13;;
59571;SDS011;59406;45.602;11.904;2023-03-22T15:04:57;9.38;;;4.05;;
59571;SDS011;59406;45.602;11.904;2023-03-22T15:07:24;6.90;;;4.38;;
59571;SDS011;59406;45.602;11.904;2023-03-22T15:09:50;9.43;;;4.95;;
59571;SDS011;59406;45.602;11.904;2023-03-22T15:12:16;7.83;;;4.23;;
59571;SDS011;59406;45.602;11.904;2023-03-22T15:14:45;7.73;;;4.27;;
59571;SDS011;59406;45.602;11.904;2023-03-22T15:17:13;8.27;;;4.38;;
59571;SDS011;59406;45.602;11.904;2023-03-22T15:19:45;8.25;;;4.60;;
59571;SDS011;59406;45.602;11.904;2023-03-22T15:22:15;8.80;;;4.82;;
59571;SDS011;59406;45.602;11.904;2023-03-22T15:24:49;8.57;;;4.90;;
59571;SDS011;59406;45.602;11.904;2023-03-22T15:27:23;8.57;;;4.83;;
59571;SDS011;59406;45.602;11.904;2023-03-22T15:29:49;6.75;;;3.90;;
59571;SDS011;59406;45.602;11.904;2023-03-22T15:32:17;8.52;;;4.28;;
59571;SDS011;59406;45.602;11.904;2023-03-22T15:34:47;8.45;;;4.65;;
59571;SDS011;59406;45.602;11.904;2023-03-22T15:37:17;8.57;;;5.40;;
59571;SDS011;59406;45.602;11.904;2023-03-22T15:39:54;7.77;;;4.53;;
59571;SDS011;59406;45.602;11.904;2023-03-22T15:42:25;6.95;;;4.00;;
59571;SDS011;59406;45.602;11.904;2023-03-22T15:47:52;6.40;;;3.70;;
59571;SDS011;59406;45.602;11.904;2023-03-22T15:50:27;8.25;;;4.38;;
59571;SDS011;59406;45.602;11.904;2023-03-22T15:52:56;7.90;;;4.63;;
59571;SDS011;59406;45.602;11.904;2023-03-22T15:55:30;6.82;;;3.75;;
59571;SDS011;59406;45.602;11.904;2023-03-22T15:58:00;6.60;;;3.42;;
59571;SDS011;59406;45.602;11.904;2023-03-22T16:00:33;6.78;;;4.28;;
59571;SDS011;59406;45.602;11.904;2023-03-22T16:05:32;7.47;;;4.40;;
59571;SDS011;59406;45.602;11.904;2023-03-22T16:07:59;8.10;;;4.32;;
59571;SDS011;59406;45.602;11.904;2023-03-22T16:10:27;6.72;;;3.60;;
59571;SDS011;59406;45.602;11.904;2023-03-22T16:12:54;6.85;;;3.63;;
59571;SDS011;59406;45.602;11.904;2023-03-22T16:15:22;8.52;;;4.40;;
59571;SDS011;59406;45.602;11.904;2023-03-22T16:17:54;7.97;;;4.07;;
59571;SDS011;59406;45.602;11.904;2023-03-22T16:20:21;6.28;;;3.88;;
59571;SDS011;59406;45.602;11.904;2023-03-22T16:22:48;8.23;;;4.40;;
59571;SDS011;59406;45.602;11.904;2023-03-22T16:25:21;8.48;;;4.82;;
59571;SDS011;59406;45.602;11.904;2023-03-22T16:27:50;7.60;;;4.47;;
59571;SDS011;59406;45.602;11.904;2023-03-22T16:30:16;7.27;;;4.07;;